Ertholm — OVJX — position and weather

sailwx.info

Track history (hours):
 
Tides and Currents Weather Stations Pressure Air Temp Water Temp Dewpoint Dewpoint Depression Visibility Wind Speed Wind Dir Waves Ship Positions

Ertholm

Last reported at 2014-Aug-23 01:33 UTC. Time now 2014-Aug-23 01:40 UTC.
Position N 55°13' E 014°58'.

Length 38 m; draft 2.3 m.

Type: Ship. MMSI: 219000751.

Date/timePositionNaut miles runAvg speedWind from/ knotsBaromVisibWave heightAir tempDewpointWater temp
2014-Aug-23 01:33N 55°13' E 014°58'0 0.0
2014-Aug-23 00:33N 55°13' E 014°58'0 0.0
2014-Aug-22 23:33N 55°13' E 014°58'0 0.0
2014-Aug-22 22:33N 55°13' E 014°58'0 0.0
2014-Aug-22 21:20N 55°13' E 014°58'0 0.0
2014-Aug-22 20:32N 55°13' E 014°58'0 0.0
2014-Aug-22 19:33N 55°13' E 014°58'0 0.0
2014-Aug-22 18:33N 55°13' E 014°58'0 0.0
2014-Aug-22 17:33N 55°13' E 014°58'0 0.0
2014-Aug-22 16:33N 55°13' E 014°58'0 0.0
2014-Aug-22 15:33N 55°13' E 014°58'7 7.4
2014-Aug-22 14:33N 55°18' E 015°08'7 1.7
2014-Aug-22 10:33N 55°13' E 014°59'7 7.2
2014-Aug-22 09:33N 55°18' E 015°08'3 2.6
2014-Aug-22 08:33N 55°17' E 015°04'5 5.2
2014-Aug-22 07:33N 55°13' E 014°58'0 0.0
2014-Aug-22 06:33N 55°13' E 014°58'0 0.0
2014-Aug-22 05:33N 55°13' E 014°58'0 0.0
2014-Aug-22 04:33N 55°13' E 014°58'0 0.0
2014-Aug-22 03:33N 55°13' E 014°58'0 0.0
2014-Aug-22 02:25N 55°13' E 014°58'0 0.0
2014-Aug-22 01:31N 55°13' E 014°58'0 0.0
2014-Aug-22 00:33N 55°13' E 014°58'0 0.0
2014-Aug-21 23:33N 55°13' E 014°58'0 0.0
2014-Aug-21 22:33N 55°13' E 014°58'0 0.0
2014-Aug-21 21:33N 55°13' E 014°58'0 0.0
2014-Aug-21 20:33N 55°13' E 014°58'0 0.0
2014-Aug-21 19:33N 55°13' E 014°58'0 0.0
2014-Aug-21 18:33N 55°13' E 014°58'0 0.0
2014-Aug-21 17:33N 55°13' E 014°58'0 0.0
2014-Aug-21 16:33N 55°13' E 014°58'0 0.0
2014-Aug-21 15:32N 55°13' E 014°58'7 7.1
2014-Aug-21 14:33N 55°17' E 015°07'3 2.8
2014-Aug-21 13:33N 55°16' E 015°03'0 0.4
2014-Aug-21 12:33N 55°16' E 015°04'5 5.1
2014-Aug-21 11:32N 55°20' E 015°10'10 9.8
2014-Aug-21 10:33N 55°13' E 014°58'7 6.7
2014-Aug-21 09:33N 55°17' E 015°07'1 1.3
2014-Aug-21 08:33N 55°18' E 015°05'6 6.0
2014-Aug-21 07:31N 55°13' E 014°58'0 0.0
2014-Aug-21 06:33N 55°13' E 014°58'0 0.0
2014-Aug-21 05:33N 55°13' E 014°58'0 0.0
2014-Aug-21 04:33N 55°13' E 014°58'0 0.0
2014-Aug-21 03:32N 55°13' E 014°58'0 0.0
2014-Aug-21 02:25N 55°13' E 014°58'0 0.0
2014-Aug-21 01:33N 55°13' E 014°58'0 0.0
2014-Aug-21 00:33N 55°13' E 014°58'0 0.0
2014-Aug-20 23:33N 55°13' E 014°58'0 0.0
2014-Aug-20 22:33N 55°13' E 014°58'0 0.0
2014-Aug-20 21:33N 55°13' E 014°58'0 0.0
2014-Aug-20 20:33N 55°13' E 014°58'0 0.0
2014-Aug-20 19:33N 55°13' E 014°58'0 0.0
2014-Aug-20 18:33N 55°13' E 014°58'0 0.0
2014-Aug-20 17:33N 55°13' E 014°58'0 0.0
2014-Aug-20 16:33N 55°13' E 014°58'0 0.0
2014-Aug-20 03:33N 55°13' E 014°58'0 0.0
2014-Aug-20 02:33N 55°13' E 014°58'0 0.0
2014-Aug-20 01:33N 55°13' E 014°58'0 0.0
2014-Aug-20 00:33N 55°13' E 014°58'0 0.0
2014-Aug-19 23:33N 55°13' E 014°58'0 0.0
2014-Aug-19 22:33N 55°13' E 014°58'0 0.0
2014-Aug-19 21:33N 55°13' E 014°58'0 0.0
2014-Aug-19 20:33N 55°13' E 014°58'0 0.0
2014-Aug-19 19:33N 55°13' E 014°58'0 0.0
2014-Aug-19 18:33N 55°13' E 014°58'0 0.0
2014-Aug-19 17:33N 55°13' E 014°58'0 0.0
2014-Aug-19 16:33N 55°13' E 014°58'0 0.0
2014-Aug-19 15:33N 55°13' E 014°58'7 7.4
2014-Aug-19 14:33N 55°17' E 015°09'4 3.8
2014-Aug-19 13:33N 55°16' E 015°02'2 1.8
2014-Aug-19 12:33N 55°16' E 015°06'5 4.8
2014-Aug-19 11:33N 55°19' E 015°11'10 9.7
2014-Aug-19 10:33N 55°13' E 014°58'6 6.4
2014-Aug-19 09:33N 55°17' E 015°07'3 2.7
2014-Aug-19 08:33N 55°18' E 015°03'5 5.5
2014-Aug-19 07:33N 55°13' E 014°58'0 0.0
2014-Aug-19 06:33N 55°13' E 014°58'0 0.0
2014-Aug-19 05:33N 55°13' E 014°58'0 0.0
2014-Aug-19 04:33N 55°13' E 014°58'0 0.0
2014-Aug-19 03:33N 55°13' E 014°58'0 0.0
2014-Aug-19 02:33N 55°13' E 014°58'0 0.0
2014-Aug-19 01:33N 55°13' E 014°58'0 0.0
2014-Aug-19 00:33N 55°13' E 014°58'0 0.0
2014-Aug-18 23:33N 55°13' E 014°58'0 0.0
2014-Aug-18 22:33N 55°13' E 014°58'0 0.0
2014-Aug-18 21:33N 55°13' E 014°58'0 0.0
2014-Aug-18 20:33N 55°13' E 014°58'0 0.0
2014-Aug-18 19:33N 55°13' E 014°58'0 0.0
2014-Aug-18 18:30N 55°13' E 014°58'0 0.0
2014-Aug-18 17:33N 55°13' E 014°58'0 0.0
2014-Aug-18 16:33N 55°13' E 014°58'0 0.0
2014-Aug-18 15:33N 55°13' E 014°58'7 7.3
2014-Aug-18 14:33N 55°18' E 015°08'3 3.4
2014-Aug-18 13:33N 55°16' E 015°03'1 1.0
2014-Aug-18 12:33N 55°16' E 015°05'5 5.0
2014-Aug-18 11:33N 55°19' E 015°11'9 9.3
2014-Aug-18 10:33N 55°13' E 014°59'6 5.7
2014-Aug-18 09:33N 55°17' E 015°06'1 1.0
2014-Aug-18 08:33N 55°17' E 015°05'5 5.4
2014-Aug-18 07:33N 55°13' E 014°58'0 0.0
2014-Aug-18 06:33N 55°13' E 014°58'0 0.0
2014-Aug-18 05:33N 55°13' E 014°58'0 0.0
2014-Aug-18 04:27N 55°13' E 014°58'0 0.0
2014-Aug-18 03:33N 55°13' E 014°58'0 0.0
2014-Aug-18 02:33N 55°13' E 014°58'0 0.0
2014-Aug-17 03:33N 55°13' E 014°58'0 0.0
2014-Aug-17 02:33N 55°13' E 014°58'0 0.0
2014-Aug-17 01:33N 55°13' E 014°58'0 0.0
2014-Aug-17 00:33N 55°13' E 014°58'0 0.0
2014-Aug-16 23:33N 55°13' E 014°58'0 0.0
2014-Aug-16 22:33N 55°13' E 014°58'0 0.0
2014-Aug-16 21:33N 55°13' E 014°58'0 0.0
2014-Aug-16 20:33N 55°13' E 014°58'0 0.0
2014-Aug-16 19:33N 55°13' E 014°58'0 0.0
2014-Aug-16 18:33N 55°13' E 014°58'0 0.0
2014-Aug-16 17:33N 55°13' E 014°58'0 0.0
2014-Aug-16 16:33N 55°13' E 014°58'0 0.0
2014-Aug-16 15:33N 55°13' E 014°58'7 7.2
2014-Aug-16 14:33N 55°18' E 015°08'3 2.8
2014-Aug-16 13:33N 55°17' E 015°03'1 1.1
2014-Aug-16 12:33N 55°16' E 015°04'6 5.6
2014-Aug-16 11:33N 55°19' E 015°11'9 9.4
2014-Aug-16 10:33N 55°13' E 014°59'7 6.7
2014-Aug-16 09:33N 55°17' E 015°07'3 2.6
2014-Aug-16 08:33N 55°17' E 015°03'5 5.3
2014-Aug-16 07:33N 55°13' E 014°58'0 0.0
2014-Aug-16 06:33N 55°13' E 014°58'0 0.0
2014-Aug-16 05:33N 55°13' E 014°58'0 0.0
2014-Aug-16 04:33N 55°13' E 014°58'0 0.0
2014-Aug-16 03:33N 55°13' E 014°58'0 0.0
2014-Aug-16 02:33N 55°13' E 014°58'0 0.0
2014-Aug-16 01:33N 55°13' E 014°58'0 0.0
2014-Aug-16 00:33N 55°13' E 014°58'0 0.0
2014-Aug-15 23:29N 55°13' E 014°58'0 0.0
2014-Aug-15 22:33N 55°13' E 014°58'0 0.0
2014-Aug-15 21:33N 55°13' E 014°58'0 0.0
2014-Aug-15 20:33N 55°13' E 014°58'0 0.0
2014-Aug-15 19:33N 55°13' E 014°58'0 0.0
2014-Aug-15 18:27N 55°13' E 014°58'0 0.0
2014-Aug-15 17:33N 55°13' E 014°58'0 0.0
2014-Aug-15 16:32N 55°13' E 014°58'0 0.0
2014-Aug-15 15:33N 55°13' E 014°58'7 7.0
2014-Aug-15 14:33N 55°18' E 015°07'2 2.1
2014-Aug-15 13:33N 55°16' E 015°05'1 0.8
2014-Aug-15 12:33N 55°16' E 015°04'6 5.7
2014-Aug-15 11:33N 55°19' E 015°11'10 9.6
2014-Aug-15 10:33N 55°13' E 014°58'6 6.3
2014-Aug-15 09:33N 55°17' E 015°07'1 0.6
2014-Aug-15 08:33N 55°17' E 015°06'6 5.9
2014-Aug-15 07:33N 55°13' E 014°58'0 0.0
2014-Aug-15 06:33N 55°13' E 014°58'0 0.0
2014-Aug-15 05:29N 55°13' E 014°58'0 0.0
2014-Aug-15 04:33N 55°13' E 014°58'0 0.0
2014-Aug-15 03:33N 55°13' E 014°58'0 0.0
2014-Aug-15 02:33N 55°13' E 014°58'0 0.0
2014-Aug-15 01:33N 55°13' E 014°58'0 0.0
2014-Aug-15 00:33N 55°13' E 014°58'0 0.0
2014-Aug-14 23:33N 55°13' E 014°58'0 0.0
2014-Aug-14 22:33N 55°13' E 014°58'0 0.0
2014-Aug-14 21:33N 55°13' E 014°58'0 0.0
2014-Aug-14 20:33N 55°13' E 014°58'0 0.0
2014-Aug-14 19:33N 55°13' E 014°58'0 0.0
2014-Aug-14 18:33N 55°13' E 014°58'0 0.0
2014-Aug-14 17:33N 55°13' E 014°58'0 0.0
2014-Aug-14 16:33N 55°13' E 014°58'0 0.0
2014-Aug-14 15:33N 55°13' E 014°58'7 6.9
2014-Aug-14 14:33N 55°17' E 015°07'3 2.7
2014-Aug-14 13:33N 55°16' E 015°04'1 0.6
2014-Aug-14 12:31N 55°16' E 015°04'5 5.4
2014-Aug-14 11:33N 55°19' E 015°11'9 9.4
2014-Aug-14 10:33N 55°13' E 014°59'7 6.5
2014-Aug-14 09:33N 55°17' E 015°07'1 1.0
2014-Aug-14 08:33N 55°17' E 015°06'6 6.0
2014-Aug-14 07:33N 55°13' E 014°58'0 0.0
2014-Aug-14 06:33N 55°13' E 014°58'0 0.0
2014-Aug-14 05:33N 55°13' E 014°58'0 0.0
2014-Aug-14 04:33N 55°13' E 014°58'0 0.0
2014-Aug-14 03:33N 55°13' E 014°58'0 0.0
2014-Aug-14 02:33N 55°13' E 014°58'0 0.0
2014-Aug-14 01:33N 55°13' E 014°58'0 0.0
2014-Aug-14 00:33N 55°13' E 014°58'0 0.0
2014-Aug-13 23:33N 55°13' E 014°58'0 0.0
2014-Aug-13 22:33N 55°13' E 014°58'0 0.0
2014-Aug-13 21:33N 55°13' E 014°58'0 0.0
2014-Aug-13 20:33N 55°13' E 014°58'0 0.0
2014-Aug-13 19:33N 55°13' E 014°58'0 0.0
2014-Aug-13 18:33N 55°13' E 014°58'0 0.0
2014-Aug-13 17:33N 55°13' E 014°58'0 0.0
2014-Aug-13 16:33N 55°13' E 014°58'0 0.0
2014-Aug-13 15:33N 55°13' E 014°58'7 7.1
2014-Aug-13 14:33N 55°18' E 015°07'2 2.5
2014-Aug-13 13:33N 55°16' E 015°04'0 0.4
2014-Aug-13 12:33N 55°16' E 015°04'6 5.6
2014-Aug-13 11:33N 55°19' E 015°11'10 9.6
2014-Aug-13 10:33N 55°13' E 014°59'7 6.6
2014-Aug-13 09:33N 55°17' E 015°07'1 1.2
2014-Aug-13 08:33N 55°17' E 015°05'6 5.6
2014-Aug-13 07:33N 55°13' E 014°58'0 0.0
2014-Aug-13 06:33N 55°13' E 014°58'0 0.0
2014-Aug-13 05:33N 55°13' E 014°58'0 0.0
2014-Aug-13 04:33N 55°13' E 014°58'0 0.0
2014-Aug-13 03:33N 55°13' E 014°58'0 0.0
2014-Aug-13 02:33N 55°13' E 014°58'  
Track history (hours):
 
Tides and Currents Weather Stations Pressure Air Temp Water Temp Dewpoint Dewpoint Depression Visibility Wind Speed Wind Dir Waves Ship Positions

Ertholm

Last reported at 2014-Aug-23 01:33 UTC. Time now 2014-Aug-23 01:40 UTC.
Position N 55°13' E 014°58'.

Length 38 m; draft 2.3 m.

Type: Ship. MMSI: 219000751.

Date/timePositionNaut miles runAvg speedWind from/ knotsBaromVisibWave heightAir tempDewpointWater temp
2014-Aug-23 01:33N 55°13' E 014°58'0 0.0
2014-Aug-23 00:33N 55°13' E 014°58'0 0.0
2014-Aug-22 23:33N 55°13' E 014°58'0 0.0
2014-Aug-22 22:33N 55°13' E 014°58'0 0.0
2014-Aug-22 21:20N 55°13' E 014°58'0 0.0
2014-Aug-22 20:32N 55°13' E 014°58'0 0.0
2014-Aug-22 19:33N 55°13' E 014°58'0 0.0
2014-Aug-22 18:33N 55°13' E 014°58'0 0.0
2014-Aug-22 17:33N 55°13' E 014°58'0 0.0
2014-Aug-22 16:33N 55°13' E 014°58'0 0.0
2014-Aug-22 15:33N 55°13' E 014°58'7 7.4
2014-Aug-22 14:33N 55°18' E 015°08'7 1.7
2014-Aug-22 10:33N 55°13' E 014°59'7 7.2
2014-Aug-22 09:33N 55°18' E 015°08'3 2.6
2014-Aug-22 08:33N 55°17' E 015°04'5 5.2
2014-Aug-22 07:33N 55°13' E 014°58'0 0.0
2014-Aug-22 06:33N 55°13' E 014°58'0 0.0
2014-Aug-22 05:33N 55°13' E 014°58'0 0.0
2014-Aug-22 04:33N 55°13' E 014°58'0 0.0
2014-Aug-22 03:33N 55°13' E 014°58'0 0.0
2014-Aug-22 02:25N 55°13' E 014°58'0 0.0
2014-Aug-22 01:31N 55°13' E 014°58'0 0.0
2014-Aug-22 00:33N 55°13' E 014°58'0 0.0
2014-Aug-21 23:33N 55°13' E 014°58'0 0.0
2014-Aug-21 22:33N 55°13' E 014°58'0 0.0
2014-Aug-21 21:33N 55°13' E 014°58'0 0.0
2014-Aug-21 20:33N 55°13' E 014°58'0 0.0
2014-Aug-21 19:33N 55°13' E 014°58'0 0.0
2014-Aug-21 18:33N 55°13' E 014°58'0 0.0
2014-Aug-21 17:33N 55°13' E 014°58'0 0.0
2014-Aug-21 16:33N 55°13' E 014°58'0 0.0
2014-Aug-21 15:32N 55°13' E 014°58'7 7.1
2014-Aug-21 14:33N 55°17' E 015°07'3 2.8
2014-Aug-21 13:33N 55°16' E 015°03'0 0.4
2014-Aug-21 12:33N 55°16' E 015°04'5 5.1
2014-Aug-21 11:32N 55°20' E 015°10'10 9.8
2014-Aug-21 10:33N 55°13' E 014°58'7 6.7
2014-Aug-21 09:33N 55°17' E 015°07'1 1.3
2014-Aug-21 08:33N 55°18' E 015°05'6 6.0
2014-Aug-21 07:31N 55°13' E 014°58'0 0.0
2014-Aug-21 06:33N 55°13' E 014°58'0 0.0
2014-Aug-21 05:33N 55°13' E 014°58'0 0.0
2014-Aug-21 04:33N 55°13' E 014°58'0 0.0
2014-Aug-21 03:32N 55°13' E 014°58'0 0.0
2014-Aug-21 02:25N 55°13' E 014°58'0 0.0
2014-Aug-21 01:33N 55°13' E 014°58'0 0.0
2014-Aug-21 00:33N 55°13' E 014°58'0 0.0
2014-Aug-20 23:33N 55°13' E 014°58'0 0.0
2014-Aug-20 22:33N 55°13' E 014°58'0 0.0
2014-Aug-20 21:33N 55°13' E 014°58'0 0.0
2014-Aug-20 20:33N 55°13' E 014°58'0 0.0
2014-Aug-20 19:33N 55°13' E 014°58'0 0.0
2014-Aug-20 18:33N 55°13' E 014°58'0 0.0
2014-Aug-20 17:33N 55°13' E 014°58'0 0.0
2014-Aug-20 16:33N 55°13' E 014°58'0 0.0
2014-Aug-20 03:33N 55°13' E 014°58'0 0.0
2014-Aug-20 02:33N 55°13' E 014°58'0 0.0
2014-Aug-20 01:33N 55°13' E 014°58'0 0.0
2014-Aug-20 00:33N 55°13' E 014°58'0 0.0
2014-Aug-19 23:33N 55°13' E 014°58'0 0.0
2014-Aug-19 22:33N 55°13' E 014°58'0 0.0
2014-Aug-19 21:33N 55°13' E 014°58'0 0.0
2014-Aug-19 20:33N 55°13' E 014°58'0 0.0
2014-Aug-19 19:33N 55°13' E 014°58'0 0.0
2014-Aug-19 18:33N 55°13' E 014°58'0 0.0
2014-Aug-19 17:33N 55°13' E 014°58'0 0.0
2014-Aug-19 16:33N 55°13' E 014°58'0 0.0
2014-Aug-19 15:33N 55°13' E 014°58'7 7.4
2014-Aug-19 14:33N 55°17' E 015°09'4 3.8
2014-Aug-19 13:33N 55°16' E 015°02'2 1.8
2014-Aug-19 12:33N 55°16' E 015°06'5 4.8
2014-Aug-19 11:33N 55°19' E 015°11'10 9.7
2014-Aug-19 10:33N 55°13' E 014°58'6 6.4
2014-Aug-19 09:33N 55°17' E 015°07'3 2.7
2014-Aug-19 08:33N 55°18' E 015°03'5 5.5
2014-Aug-19 07:33N 55°13' E 014°58'0 0.0
2014-Aug-19 06:33N 55°13' E 014°58'0 0.0
2014-Aug-19 05:33N 55°13' E 014°58'0 0.0
2014-Aug-19 04:33N 55°13' E 014°58'0 0.0
2014-Aug-19 03:33N 55°13' E 014°58'0 0.0
2014-Aug-19 02:33N 55°13' E 014°58'0 0.0
2014-Aug-19 01:33N 55°13' E 014°58'0 0.0
2014-Aug-19 00:33N 55°13' E 014°58'0 0.0
2014-Aug-18 23:33N 55°13' E 014°58'0 0.0
2014-Aug-18 22:33N 55°13' E 014°58'0 0.0
2014-Aug-18 21:33N 55°13' E 014°58'0 0.0
2014-Aug-18 20:33N 55°13' E 014°58'0 0.0
2014-Aug-18 19:33N 55°13' E 014°58'0 0.0
2014-Aug-18 18:30N 55°13' E 014°58'0 0.0
2014-Aug-18 17:33N 55°13' E 014°58'0 0.0
2014-Aug-18 16:33N 55°13' E 014°58'0 0.0
2014-Aug-18 15:33N 55°13' E 014°58'7 7.3
2014-Aug-18 14:33N 55°18' E 015°08'3 3.4
2014-Aug-18 13:33N 55°16' E 015°03'1 1.0
2014-Aug-18 12:33N 55°16' E 015°05'5 5.0
2014-Aug-18 11:33N 55°19' E 015°11'9 9.3
2014-Aug-18 10:33N 55°13' E 014°59'6 5.7
2014-Aug-18 09:33N 55°17' E 015°06'1 1.0
2014-Aug-18 08:33N 55°17' E 015°05'5 5.4
2014-Aug-18 07:33N 55°13' E 014°58'0 0.0
2014-Aug-18 06:33N 55°13' E 014°58'0 0.0
2014-Aug-18 05:33N 55°13' E 014°58'0 0.0
2014-Aug-18 04:27N 55°13' E 014°58'0 0.0
2014-Aug-18 03:33N 55°13' E 014°58'0 0.0
2014-Aug-18 02:33N 55°13' E 014°58'0 0.0
2014-Aug-17 03:33N 55°13' E 014°58'0 0.0
2014-Aug-17 02:33N 55°13' E 014°58'0 0.0
2014-Aug-17 01:33N 55°13' E 014°58'0 0.0
2014-Aug-17 00:33N 55°13' E 014°58'0 0.0
2014-Aug-16 23:33N 55°13' E 014°58'0 0.0
2014-Aug-16 22:33N 55°13' E 014°58'0 0.0
2014-Aug-16 21:33N 55°13' E 014°58'0 0.0
2014-Aug-16 20:33N 55°13' E 014°58'0 0.0
2014-Aug-16 19:33N 55°13' E 014°58'0 0.0
2014-Aug-16 18:33N 55°13' E 014°58'0 0.0
2014-Aug-16 17:33N 55°13' E 014°58'0 0.0
2014-Aug-16 16:33N 55°13' E 014°58'0 0.0
2014-Aug-16 15:33N 55°13' E 014°58'7 7.2
2014-Aug-16 14:33N 55°18' E 015°08'3 2.8
2014-Aug-16 13:33N 55°17' E 015°03'1 1.1
2014-Aug-16 12:33N 55°16' E 015°04'6 5.6
2014-Aug-16 11:33N 55°19' E 015°11'9 9.4
2014-Aug-16 10:33N 55°13' E 014°59'7 6.7
2014-Aug-16 09:33N 55°17' E 015°07'3 2.6
2014-Aug-16 08:33N 55°17' E 015°03'5 5.3
2014-Aug-16 07:33N 55°13' E 014°58'0 0.0
2014-Aug-16 06:33N 55°13' E 014°58'0 0.0
2014-Aug-16 05:33N 55°13' E 014°58'0 0.0
2014-Aug-16 04:33N 55°13' E 014°58'0 0.0
2014-Aug-16 03:33N 55°13' E 014°58'0 0.0
2014-Aug-16 02:33N 55°13' E 014°58'0 0.0
2014-Aug-16 01:33N 55°13' E 014°58'0 0.0
2014-Aug-16 00:33N 55°13' E 014°58'0 0.0
2014-Aug-15 23:29N 55°13' E 014°58'0 0.0
2014-Aug-15 22:33N 55°13' E 014°58'0 0.0
2014-Aug-15 21:33N 55°13' E 014°58'0 0.0
2014-Aug-15 20:33N 55°13' E 014°58'0 0.0
2014-Aug-15 19:33N 55°13' E 014°58'0 0.0
2014-Aug-15 18:27N 55°13' E 014°58'0 0.0
2014-Aug-15 17:33N 55°13' E 014°58'0 0.0
2014-Aug-15 16:32N 55°13' E 014°58'0 0.0
2014-Aug-15 15:33N 55°13' E 014°58'7 7.0
2014-Aug-15 14:33N 55°18' E 015°07'2 2.1
2014-Aug-15 13:33N 55°16' E 015°05'1 0.8
2014-Aug-15 12:33N 55°16' E 015°04'6 5.7
2014-Aug-15 11:33N 55°19' E 015°11'10 9.6
2014-Aug-15 10:33N 55°13' E 014°58'6 6.3
2014-Aug-15 09:33N 55°17' E 015°07'1 0.6
2014-Aug-15 08:33N 55°17' E 015°06'6 5.9
2014-Aug-15 07:33N 55°13' E 014°58'0 0.0
2014-Aug-15 06:33N 55°13' E 014°58'0 0.0
2014-Aug-15 05:29N 55°13' E 014°58'0 0.0
2014-Aug-15 04:33N 55°13' E 014°58'0 0.0
2014-Aug-15 03:33N 55°13' E 014°58'0 0.0
2014-Aug-15 02:33N 55°13' E 014°58'0 0.0
2014-Aug-15 01:33N 55°13' E 014°58'0 0.0
2014-Aug-15 00:33N 55°13' E 014°58'0 0.0
2014-Aug-14 23:33N 55°13' E 014°58'0 0.0
2014-Aug-14 22:33N 55°13' E 014°58'0 0.0
2014-Aug-14 21:33N 55°13' E 014°58'0 0.0
2014-Aug-14 20:33N 55°13' E 014°58'0 0.0
2014-Aug-14 19:33N 55°13' E 014°58'0 0.0
2014-Aug-14 18:33N 55°13' E 014°58'0 0.0
2014-Aug-14 17:33N 55°13' E 014°58'0 0.0
2014-Aug-14 16:33N 55°13' E 014°58'0 0.0
2014-Aug-14 15:33N 55°13' E 014°58'7 6.9
2014-Aug-14 14:33N 55°17' E 015°07'3 2.7
2014-Aug-14 13:33N 55°16' E 015°04'1 0.6
2014-Aug-14 12:31N 55°16' E 015°04'5 5.4
2014-Aug-14 11:33N 55°19' E 015°11'9 9.4
2014-Aug-14 10:33N 55°13' E 014°59'7 6.5
2014-Aug-14 09:33N 55°17' E 015°07'1 1.0
2014-Aug-14 08:33N 55°17' E 015°06'6 6.0
2014-Aug-14 07:33N 55°13' E 014°58'0 0.0
2014-Aug-14 06:33N 55°13' E 014°58'0 0.0
2014-Aug-14 05:33N 55°13' E 014°58'0 0.0
2014-Aug-14 04:33N 55°13' E 014°58'0 0.0
2014-Aug-14 03:33N 55°13' E 014°58'0 0.0
2014-Aug-14 02:33N 55°13' E 014°58'0 0.0
2014-Aug-14 01:33N 55°13' E 014°58'0 0.0
2014-Aug-14 00:33N 55°13' E 014°58'0 0.0
2014-Aug-13 23:33N 55°13' E 014°58'0 0.0
2014-Aug-13 22:33N 55°13' E 014°58'0 0.0
2014-Aug-13 21:33N 55°13' E 014°58'0 0.0
2014-Aug-13 20:33N 55°13' E 014°58'0 0.0
2014-Aug-13 19:33N 55°13' E 014°58'0 0.0
2014-Aug-13 18:33N 55°13' E 014°58'0 0.0
2014-Aug-13 17:33N 55°13' E 014°58'0 0.0
2014-Aug-13 16:33N 55°13' E 014°58'0 0.0
2014-Aug-13 15:33N 55°13' E 014°58'7 7.1
2014-Aug-13 14:33N 55°18' E 015°07'2 2.5
2014-Aug-13 13:33N 55°16' E 015°04'0 0.4
2014-Aug-13 12:33N 55°16' E 015°04'6 5.6
2014-Aug-13 11:33N 55°19' E 015°11'10 9.6
2014-Aug-13 10:33N 55°13' E 014°59'7 6.6
2014-Aug-13 09:33N 55°17' E 015°07'1 1.2
2014-Aug-13 08:33N 55°17' E 015°05'6 5.6
2014-Aug-13 07:33N 55°13' E 014°58'0 0.0
2014-Aug-13 06:33N 55°13' E 014°58'0 0.0
2014-Aug-13 05:33N 55°13' E 014°58'0 0.0
2014-Aug-13 04:33N 55°13' E 014°58'0 0.0
2014-Aug-13 03:33N 55°13' E 014°58'0 0.0
2014-Aug-13 02:33N 55°13' E 014°58'  

Dump ship's entire track history